sensor_id;sensor_type;location;lat;lon;timestamp;P1;durP1;ratioP1;P2;durP2;ratioP2
47772;SDS011;33534;51.028;13.716;2022-09-09T00:04:00;6.25;;;2.00;;
47772;SDS011;33534;51.028;13.716;2022-09-09T00:06:33;6.63;;;1.50;;
47772;SDS011;33534;51.028;13.716;2022-09-09T00:09:02;1.98;;;1.60;;
47772;SDS011;33534;51.028;13.716;2022-09-09T00:11:39;2.85;;;1.15;;
47772;SDS011;33534;51.028;13.716;2022-09-09T00:16:55;2.25;;;1.30;;
47772;SDS011;33534;51.028;13.716;2022-09-09T00:19:23;2.90;;;1.35;;
47772;SDS011;33534;51.028;13.716;2022-09-09T00:21:59;5.93;;;1.55;;
47772;SDS011;33534;51.028;13.716;2022-09-09T00:24:32;1.70;;;1.20;;
47772;SDS011;33534;51.028;13.716;2022-09-09T00:27:07;3.35;;;1.20;;
47772;SDS011;33534;51.028;13.716;2022-09-09T00:32:12;1.98;;;1.48;;
47772;SDS011;33534;51.028;13.716;2022-09-09T00:34:39;2.17;;;1.50;;
47772;SDS011;33534;51.028;13.716;2022-09-09T00:37:08;1.88;;;1.10;;
47772;SDS011;33534;51.028;13.716;2022-09-09T00:39:39;3.47;;;0.98;;
47772;SDS011;33534;51.028;13.716;2022-09-09T00:44:41;1.70;;;1.00;;
47772;SDS011;33534;51.028;13.716;2022-09-09T00:47:25;4.18;;;1.20;;
47772;SDS011;33534;51.028;13.716;2022-09-09T00:55:45;2.30;;;1.30;;
47772;SDS011;33534;51.028;13.716;2022-09-09T00:58:13;0.90;;;0.70;;
47772;SDS011;33534;51.028;13.716;2022-09-09T01:11:00;11.95;;;1.52;;
47772;SDS011;33534;51.028;13.716;2022-09-09T01:13:32;3.47;;;1.23;;
47772;SDS011;33534;51.028;13.716;2022-09-09T01:15:59;2.35;;;1.00;;
47772;SDS011;33534;51.028;13.716;2022-09-09T01:18:28;3.25;;;1.13;;
47772;SDS011;33534;51.028;13.716;2022-09-09T01:21:03;12.02;;;1.73;;
47772;SDS011;33534;51.028;13.716;2022-09-09T01:26:16;2.17;;;1.65;;
47772;SDS011;33534;51.028;13.716;2022-09-09T01:28:47;2.17;;;1.25;;
47772;SDS011;33534;51.028;13.716;2022-09-09T01:31:17;4.30;;;1.63;;
47772;SDS011;33534;51.028;13.716;2022-09-09T01:33:43;3.70;;;1.38;;
47772;SDS011;33534;51.028;13.716;2022-09-09T01:36:12;4.22;;;1.52;;
47772;SDS011;33534;51.028;13.716;2022-09-09T01:38:39;5.43;;;1.55;;
47772;SDS011;33534;51.028;13.716;2022-09-09T01:41:05;3.22;;;1.33;;
47772;SDS011;33534;51.028;13.716;2022-09-09T01:43:31;1.52;;;0.98;;
47772;SDS011;33534;51.028;13.716;2022-09-09T01:45:59;3.55;;;1.20;;
47772;SDS011;33534;51.028;13.716;2022-09-09T01:48:26;2.53;;;1.10;;
47772;SDS011;33534;51.028;13.716;2022-09-09T01:50:53;2.97;;;1.55;;
47772;SDS011;33534;51.028;13.716;2022-09-09T01:53:19;3.13;;;1.90;;
47772;SDS011;33534;51.028;13.716;2022-09-09T01:55:49;4.35;;;1.50;;
47772;SDS011;33534;51.028;13.716;2022-09-09T02:00:56;4.43;;;1.90;;
47772;SDS011;33534;51.028;13.716;2022-09-09T02:03:29;4.25;;;2.10;;
47772;SDS011;33534;51.028;13.716;2022-09-09T02:08:40;2.92;;;2.33;;
47772;SDS011;33534;51.028;13.716;2022-09-09T02:13:34;5.57;;;1.70;;
47772;SDS011;33534;51.028;13.716;2022-09-09T02:16:08;2.78;;;1.88;;
47772;SDS011;33534;51.028;13.716;2022-09-09T02:18:38;2.67;;;1.65;;
47772;SDS011;33534;51.028;13.716;2022-09-09T02:21:07;2.67;;;1.35;;
47772;SDS011;33534;51.028;13.716;2022-09-09T02:23:33;2.20;;;1.30;;
47772;SDS011;33534;51.028;13.716;2022-09-09T02:26:00;6.78;;;2.22;;
47772;SDS011;33534;51.028;13.716;2022-09-09T02:28:28;5.43;;;1.48;;
47772;SDS011;33534;51.028;13.716;2022-09-09T02:30:55;5.53;;;1.75;;
47772;SDS011;33534;51.028;13.716;2022-09-09T02:33:24;9.20;;;1.77;;
47772;SDS011;33534;51.028;13.716;2022-09-09T02:35:51;5.07;;;1.52;;
47772;SDS011;33534;51.028;13.716;2022-09-09T02:38:17;5.90;;;2.00;;
47772;SDS011;33534;51.028;13.716;2022-09-09T02:40:44;9.68;;;2.10;;
47772;SDS011;33534;51.028;13.716;2022-09-09T02:43:10;3.70;;;1.60;;
47772;SDS011;33534;51.028;13.716;2022-09-09T02:45:46;4.85;;;1.38;;
47772;SDS011;33534;51.028;13.716;2022-09-09T02:53:32;3.47;;;1.42;;
47772;SDS011;33534;51.028;13.716;2022-09-09T02:56:07;5.97;;;1.80;;
47772;SDS011;33534;51.028;13.716;2022-09-09T02:58:34;7.50;;;1.95;;
47772;SDS011;33534;51.028;13.716;2022-09-09T03:01:00;2.20;;;1.50;;
47772;SDS011;33534;51.028;13.716;2022-09-09T03:03:28;4.32;;;1.95;;
47772;SDS011;33534;51.028;13.716;2022-09-09T03:05:55;3.95;;;1.80;;
47772;SDS011;33534;51.028;13.716;2022-09-09T03:08:21;3.78;;;1.70;;
47772;SDS011;33534;51.028;13.716;2022-09-09T03:10:48;4.30;;;1.50;;
47772;SDS011;33534;51.028;13.716;2022-09-09T03:13:14;5.43;;;1.90;;
47772;SDS011;33534;51.028;13.716;2022-09-09T03:15:40;5.00;;;1.50;;
47772;SDS011;33534;51.028;13.716;2022-09-09T03:18:06;6.50;;;2.03;;
47772;SDS011;33534;51.028;13.716;2022-09-09T03:20:32;4.40;;;1.92;;
47772;SDS011;33534;51.028;13.716;2022-09-09T03:22:59;3.50;;;2.05;;
47772;SDS011;33534;51.028;13.716;2022-09-09T03:25:25;4.28;;;1.58;;
47772;SDS011;33534;51.028;13.716;2022-09-09T03:27:51;4.57;;;1.95;;
47772;SDS011;33534;51.028;13.716;2022-09-09T03:30:23;5.90;;;1.90;;
47772;SDS011;33534;51.028;13.716;2022-09-09T03:32:49;7.10;;;1.67;;
47772;SDS011;33534;51.028;13.716;2022-09-09T03:35:15;3.45;;;1.38;;
47772;SDS011;33534;51.028;13.716;2022-09-09T03:37:41;4.03;;;1.70;;
47772;SDS011;33534;51.028;13.716;2022-09-09T03:40:08;4.43;;;1.30;;
47772;SDS011;33534;51.028;13.716;2022-09-09T03:42:35;11.25;;;2.25;;
47772;SDS011;33534;51.028;13.716;2022-09-09T03:45:02;4.68;;;1.42;;
47772;SDS011;33534;51.028;13.716;2022-09-09T03:47:28;7.75;;;1.92;;
47772;SDS011;33534;51.028;13.716;2022-09-09T03:49:54;4.60;;;2.05;;
47772;SDS011;33534;51.028;13.716;2022-09-09T03:52:20;3.78;;;1.90;;
47772;SDS011;33534;51.028;13.716;2022-09-09T03:54:49;7.95;;;2.60;;
47772;SDS011;33534;51.028;13.716;2022-09-09T03:57:16;2.65;;;1.95;;
47772;SDS011;33534;51.028;13.716;2022-09-09T03:59:42;4.85;;;2.10;;
47772;SDS011;33534;51.028;13.716;2022-09-09T04:02:08;14.73;;;2.72;;
47772;SDS011;33534;51.028;13.716;2022-09-09T04:04:34;7.72;;;2.78;;
47772;SDS011;33534;51.028;13.716;2022-09-09T04:07:01;5.90;;;2.20;;
47772;SDS011;33534;51.028;13.716;2022-09-09T04:09:27;7.05;;;2.20;;
47772;SDS011;33534;51.028;13.716;2022-09-09T04:11:53;5.72;;;2.35;;
47772;SDS011;33534;51.028;13.716;2022-09-09T04:14:19;6.00;;;2.67;;
47772;SDS011;33534;51.028;13.716;2022-09-09T04:16:46;9.88;;;1.83;;
47772;SDS011;33534;51.028;13.716;2022-09-09T04:19:12;2.95;;;2.10;;
47772;SDS011;33534;51.028;13.716;2022-09-09T04:21:39;4.95;;;2.75;;
47772;SDS011;33534;51.028;13.716;2022-09-09T04:24:06;4.13;;;2.60;;
47772;SDS011;33534;51.028;13.716;2022-09-09T04:26:32;8.10;;;2.90;;
47772;SDS011;33534;51.028;13.716;2022-09-09T04:28:59;5.93;;;2.92;;
47772;SDS011;33534;51.028;13.716;2022-09-09T04:31:25;6.00;;;2.47;;
47772;SDS011;33534;51.028;13.716;2022-09-09T04:33:51;6.05;;;3.13;;
47772;SDS011;33534;51.028;13.716;2022-09-09T04:36:17;5.45;;;3.05;;
47772;SDS011;33534;51.028;13.716;2022-09-09T04:38:44;4.30;;;2.60;;
47772;SDS011;33534;51.028;13.716;2022-09-09T04:41:10;7.45;;;2.20;;
47772;SDS011;33534;51.028;13.716;2022-09-09T04:43:36;8.10;;;2.33;;
47772;SDS011;33534;51.028;13.716;2022-09-09T04:46:03;5.93;;;2.17;;
47772;SDS011;33534;51.028;13.716;2022-09-09T04:48:29;12.65;;;2.35;;
47772;SDS011;33534;51.028;13.716;2022-09-09T04:51:00;2.90;;;1.75;;
47772;SDS011;33534;51.028;13.716;2022-09-09T04:53:26;7.28;;;2.30;;
47772;SDS011;33534;51.028;13.716;2022-09-09T04:56:00;4.65;;;1.98;;
47772;SDS011;33534;51.028;13.716;2022-09-09T04:58:26;6.93;;;1.92;;
47772;SDS011;33534;51.028;13.716;2022-09-09T05:00:52;2.63;;;1.95;;
47772;SDS011;33534;51.028;13.716;2022-09-09T05:03:18;4.97;;;2.42;;
47772;SDS011;33534;51.028;13.716;2022-09-09T05:05:44;5.00;;;1.80;;
47772;SDS011;33534;51.028;13.716;2022-09-09T05:08:10;6.07;;;1.80;;
47772;SDS011;33534;51.028;13.716;2022-09-09T05:10:37;2.67;;;1.35;;
47772;SDS011;33534;51.028;13.716;2022-09-09T05:13:04;2.20;;;1.50;;
47772;SDS011;33534;51.028;13.716;2022-09-09T05:15:31;4.85;;;1.50;;
47772;SDS011;33534;51.028;13.716;2022-09-09T05:17:58;7.03;;;1.85;;
47772;SDS011;33534;51.028;13.716;2022-09-09T05:20:25;6.88;;;1.63;;
47772;SDS011;33534;51.028;13.716;2022-09-09T05:22:54;7.72;;;2.05;;
47772;SDS011;33534;51.028;13.716;2022-09-09T05:25:21;4.53;;;1.63;;
47772;SDS011;33534;51.028;13.716;2022-09-09T05:27:47;3.42;;;1.30;;
47772;SDS011;33534;51.028;13.716;2022-09-09T05:30:14;6.72;;;1.63;;
47772;SDS011;33534;51.028;13.716;2022-09-09T05:32:40;4.63;;;1.33;;
47772;SDS011;33534;51.028;13.716;2022-09-09T05:35:06;10.27;;;2.28;;
47772;SDS011;33534;51.028;13.716;2022-09-09T05:37:32;2.17;;;1.33;;
47772;SDS011;33534;51.028;13.716;2022-09-09T05:39:58;5.10;;;1.63;;
47772;SDS011;33534;51.028;13.716;2022-09-09T05:42:29;2.30;;;1.42;;
47772;SDS011;33534;51.028;13.716;2022-09-09T05:44:55;5.40;;;2.00;;
47772;SDS011;33534;51.028;13.716;2022-09-09T05:47:22;3.50;;;1.80;;
47772;SDS011;33534;51.028;13.716;2022-09-09T05:49:48;4.32;;;1.67;;
47772;SDS011;33534;51.028;13.716;2022-09-09T05:52:14;7.68;;;1.58;;
47772;SDS011;33534;51.028;13.716;2022-09-09T05:54:40;4.90;;;1.52;;
47772;SDS011;33534;51.028;13.716;2022-09-09T05:57:08;4.43;;;1.33;;
47772;SDS011;33534;51.028;13.716;2022-09-09T05:59:34;10.38;;;1.98;;
47772;SDS011;33534;51.028;13.716;2022-09-09T06:02:00;4.03;;;1.70;;
47772;SDS011;33534;51.028;13.716;2022-09-09T06:04:26;4.43;;;1.63;;
47772;SDS011;33534;51.028;13.716;2022-09-09T06:06:52;7.07;;;1.92;;
47772;SDS011;33534;51.028;13.716;2022-09-09T06:09:18;6.03;;;1.98;;
47772;SDS011;33534;51.028;13.716;2022-09-09T06:11:44;4.05;;;2.35;;
47772;SDS011;33534;51.028;13.716;2022-09-09T06:14:10;6.15;;;1.80;;
47772;SDS011;33534;51.028;13.716;2022-09-09T06:16:36;3.88;;;1.77;;
47772;SDS011;33534;51.028;13.716;2022-09-09T06:19:02;6.90;;;1.98;;
47772;SDS011;33534;51.028;13.716;2022-09-09T06:21:33;6.18;;;2.55;;
47772;SDS011;33534;51.028;13.716;2022-09-09T06:24:09;14.63;;;2.27;;
47772;SDS011;33534;51.028;13.716;2022-09-09T06:26:40;3.35;;;2.00;;
47772;SDS011;33534;51.028;13.716;2022-09-09T06:29:07;5.32;;;1.73;;
47772;SDS011;33534;51.028;13.716;2022-09-09T06:31:38;4.68;;;1.67;;
47772;SDS011;33534;51.028;13.716;2022-09-09T06:34:16;4.43;;;1.60;;
47772;SDS011;33534;51.028;13.716;2022-09-09T06:36:42;4.88;;;1.70;;
47772;SDS011;33534;51.028;13.716;2022-09-09T06:39:12;2.92;;;1.58;;
47772;SDS011;33534;51.028;13.716;2022-09-09T06:41:38;4.13;;;1.70;;
47772;SDS011;33534;51.028;13.716;2022-09-09T06:44:04;6.30;;;2.10;;
47772;SDS011;33534;51.028;13.716;2022-09-09T06:46:31;10.60;;;1.88;;
47772;SDS011;33534;51.028;13.716;2022-09-09T06:48:58;6.40;;;1.85;;
47772;SDS011;33534;51.028;13.716;2022-09-09T06:51:34;6.05;;;1.75;;
47772;SDS011;33534;51.028;13.716;2022-09-09T06:54:01;6.65;;;1.80;;
47772;SDS011;33534;51.028;13.716;2022-09-09T06:56:31;8.57;;;1.52;;
47772;SDS011;33534;51.028;13.716;2022-09-09T06:58:58;4.05;;;1.73;;
47772;SDS011;33534;51.028;13.716;2022-09-09T07:01:26;2.92;;;1.58;;
47772;SDS011;33534;51.028;13.716;2022-09-09T07:03:54;4.07;;;2.03;;
47772;SDS011;33534;51.028;13.716;2022-09-09T07:06:21;6.40;;;1.70;;
47772;SDS011;33534;51.028;13.716;2022-09-09T07:08:51;5.65;;;1.55;;
47772;SDS011;33534;51.028;13.716;2022-09-09T07:11:18;3.75;;;1.60;;
47772;SDS011;33534;51.028;13.716;2022-09-09T07:13:45;2.58;;;1.40;;
47772;SDS011;33534;51.028;13.716;2022-09-09T07:16:11;7.72;;;1.40;;
47772;SDS011;33534;51.028;13.716;2022-09-09T07:18:38;7.82;;;1.77;;
47772;SDS011;33534;51.028;13.716;2022-09-09T07:21:05;7.18;;;1.83;;
47772;SDS011;33534;51.028;13.716;2022-09-09T07:23:31;8.13;;;1.55;;
47772;SDS011;33534;51.028;13.716;2022-09-09T07:25:58;3.60;;;1.40;;
47772;SDS011;33534;51.028;13.716;2022-09-09T07:28:24;4.50;;;1.60;;
47772;SDS011;33534;51.028;13.716;2022-09-09T07:30:56;5.38;;;1.60;;
47772;SDS011;33534;51.028;13.716;2022-09-09T07:33:23;4.93;;;1.77;;
47772;SDS011;33534;51.028;13.716;2022-09-09T07:35:49;4.55;;;1.98;;
47772;SDS011;33534;51.028;13.716;2022-09-09T07:38:15;8.95;;;1.98;;
47772;SDS011;33534;51.028;13.716;2022-09-09T07:40:41;5.07;;;1.90;;
47772;SDS011;33534;51.028;13.716;2022-09-09T07:43:07;8.32;;;2.13;;
47772;SDS011;33534;51.028;13.716;2022-09-09T07:45:33;7.70;;;2.00;;
47772;SDS011;33534;51.028;13.716;2022-09-09T07:48:00;4.85;;;1.55;;
47772;SDS011;33534;51.028;13.716;2022-09-09T07:50:26;4.45;;;1.42;;
47772;SDS011;33534;51.028;13.716;2022-09-09T07:52:53;2.33;;;1.30;;
47772;SDS011;33534;51.028;13.716;2022-09-09T07:55:19;10.27;;;2.38;;
47772;SDS011;33534;51.028;13.716;2022-09-09T07:57:46;5.00;;;1.42;;
47772;SDS011;33534;51.028;13.716;2022-09-09T08:00:12;3.13;;;1.80;;
47772;SDS011;33534;51.028;13.716;2022-09-09T08:02:39;7.20;;;1.75;;
47772;SDS011;33534;51.028;13.716;2022-09-09T08:05:06;4.70;;;1.35;;
47772;SDS011;33534;51.028;13.716;2022-09-09T08:07:32;1.65;;;1.33;;
47772;SDS011;33534;51.028;13.716;2022-09-09T08:09:58;4.28;;;2.08;;
47772;SDS011;33534;51.028;13.716;2022-09-09T08:12:24;5.20;;;1.73;;
47772;SDS011;33534;51.028;13.716;2022-09-09T08:14:50;4.03;;;1.67;;
47772;SDS011;33534;51.028;13.716;2022-09-09T08:17:16;3.75;;;1.83;;
47772;SDS011;33534;51.028;13.716;2022-09-09T08:19:42;6.10;;;2.38;;
47772;SDS011;33534;51.028;13.716;2022-09-09T08:22:09;17.15;;;2.42;;
47772;SDS011;33534;51.028;13.716;2022-09-09T08:24:35;4.07;;;1.63;;
47772;SDS011;33534;51.028;13.716;2022-09-09T08:27:01;4.25;;;1.50;;
47772;SDS011;33534;51.028;13.716;2022-09-09T08:29:27;4.65;;;1.45;;
47772;SDS011;33534;51.028;13.716;2022-09-09T08:31:57;6.60;;;2.10;;
47772;SDS011;33534;51.028;13.716;2022-09-09T08:34:23;4.90;;;1.50;;
47772;SDS011;33534;51.028;13.716;2022-09-09T08:36:51;4.55;;;1.33;;
47772;SDS011;33534;51.028;13.716;2022-09-09T08:39:18;1.98;;;0.98;;
47772;SDS011;33534;51.028;13.716;2022-09-09T08:52:15;3.08;;;0.70;;
47772;SDS011;33534;51.028;13.716;2022-09-09T08:54:42;6.07;;;1.08;;
47772;SDS011;33534;51.028;13.716;2022-09-09T08:57:11;2.67;;;1.05;;
47772;SDS011;33534;51.028;13.716;2022-09-09T08:59:39;6.32;;;1.45;;
47772;SDS011;33534;51.028;13.716;2022-09-09T09:02:16;3.50;;;0.80;;
47772;SDS011;33534;51.028;13.716;2022-09-09T09:04:55;4.70;;;1.00;;
47772;SDS011;33534;51.028;13.716;2022-09-09T09:07:31;4.85;;;1.23;;
47772;SDS011;33534;51.028;13.716;2022-09-09T09:10:08;4.97;;;0.90;;
47772;SDS011;33534;51.028;13.716;2022-09-09T09:12:38;5.78;;;1.27;;
47772;SDS011;33534;51.028;13.716;2022-09-09T09:15:17;3.13;;;1.20;;
47772;SDS011;33534;51.028;13.716;2022-09-09T09:17:43;4.95;;;1.23;;
47772;SDS011;33534;51.028;13.716;2022-09-09T09:20:13;4.03;;;1.10;;
47772;SDS011;33534;51.028;13.716;2022-09-09T09:22:45;3.40;;;1.30;;
47772;SDS011;33534;51.028;13.716;2022-09-09T09:25:23;5.28;;;1.30;;
47772;SDS011;33534;51.028;13.716;2022-09-09T09:36:06;6.22;;;1.23;;
47772;SDS011;33534;51.028;13.716;2022-09-09T09:38:33;2.38;;;1.10;;
47772;SDS011;33534;51.028;13.716;2022-09-09T09:41:00;1.58;;;1.25;;
47772;SDS011;33534;51.028;13.716;2022-09-09T09:45:53;4.55;;;1.05;;
47772;SDS011;33534;51.028;13.716;2022-09-09T09:48:19;4.30;;;1.00;;
47772;SDS011;33534;51.028;13.716;2022-09-09T09:50:55;5.38;;;1.30;;
47772;SDS011;33534;51.028;13.716;2022-09-09T09:55:56;2.55;;;0.88;;
47772;SDS011;33534;51.028;13.716;2022-09-09T09:58:23;2.90;;;1.00;;
47772;SDS011;33534;51.028;13.716;2022-09-09T10:00:51;5.25;;;1.27;;
47772;SDS011;33534;51.028;13.716;2022-09-09T10:03:26;5.63;;;1.30;;
47772;SDS011;33534;51.028;13.716;2022-09-09T10:05:52;5.15;;;1.27;;
47772;SDS011;33534;51.028;13.716;2022-09-09T10:08:19;4.20;;;0.77;;
47772;SDS011;33534;51.028;13.716;2022-09-09T10:16:01;4.35;;;1.10;;
47772;SDS011;33534;51.028;13.716;2022-09-09T10:18:53;3.03;;;0.70;;
47772;SDS011;33534;51.028;13.716;2022-09-09T10:31:43;4.95;;;1.15;;
47772;SDS011;33534;51.028;13.716;2022-09-09T10:40:05;5.70;;;1.27;;
47772;SDS011;33534;51.028;13.716;2022-09-09T10:42:37;4.38;;;1.02;;
47772;SDS011;33534;51.028;13.716;2022-09-09T10:59:53;6.40;;;1.83;;
47772;SDS011;33534;51.028;13.716;2022-09-09T11:04:55;4.05;;;1.02;;
47772;SDS011;33534;51.028;13.716;2022-09-09T11:07:28;4.63;;;1.50;;
47772;SDS011;33534;51.028;13.716;2022-09-09T11:09:58;5.10;;;1.52;;
47772;SDS011;33534;51.028;13.716;2022-09-09T11:12:26;4.95;;;1.63;;
47772;SDS011;33534;51.028;13.716;2022-09-09T11:15:06;6.63;;;1.50;;
47772;SDS011;33534;51.028;13.716;2022-09-09T11:17:54;7.07;;;1.55;;
47772;SDS011;33534;51.028;13.716;2022-09-09T11:20:19;3.50;;;1.48;;
47772;SDS011;33534;51.028;13.716;2022-09-09T11:22:48;3.70;;;1.00;;
47772;SDS011;33534;51.028;13.716;2022-09-09T11:25:29;4.18;;;1.45;;
47772;SDS011;33534;51.028;13.716;2022-09-09T11:30:46;4.35;;;1.30;;
47772;SDS011;33534;51.028;13.716;2022-09-09T11:33:27;3.03;;;1.27;;
47772;SDS011;33534;51.028;13.716;2022-09-09T11:38:40;4.15;;;1.70;;
47772;SDS011;33534;51.028;13.716;2022-09-09T11:41:10;2.50;;;1.10;;
47772;SDS011;33534;51.028;13.716;2022-09-09T11:46:05;4.38;;;1.33;;
47772;SDS011;33534;51.028;13.716;2022-09-09T11:48:36;2.55;;;1.17;;
47772;SDS011;33534;51.028;13.716;2022-09-09T11:51:07;2.80;;;1.33;;
47772;SDS011;33534;51.028;13.716;2022-09-09T11:53:34;3.58;;;1.25;;
47772;SDS011;33534;51.028;13.716;2022-09-09T11:58:27;3.65;;;1.13;;
47772;SDS011;33534;51.028;13.716;2022-09-09T12:00:57;3.72;;;1.58;;
47772;SDS011;33534;51.028;13.716;2022-09-09T12:05:58;4.50;;;1.50;;
47772;SDS011;33534;51.028;13.716;2022-09-09T12:08:28;3.63;;;1.17;;
47772;SDS011;33534;51.028;13.716;2022-09-09T12:10:55;6.15;;;1.50;;
47772;SDS011;33534;51.028;13.716;2022-09-09T12:13:22;4.53;;;1.63;;
47772;SDS011;33534;51.028;13.716;2022-09-09T12:15:55;7.25;;;2.42;;
47772;SDS011;33534;51.028;13.716;2022-09-09T12:18:23;3.75;;;1.58;;
47772;SDS011;33534;51.028;13.716;2022-09-09T12:21:36;7.10;;;2.05;;
47772;SDS011;33534;51.028;13.716;2022-09-09T12:23:39;5.78;;;1.70;;
47772;SDS011;33534;51.028;13.716;2022-09-09T12:29:01;4.85;;;1.45;;
47772;SDS011;33534;51.028;13.716;2022-09-09T12:31:33;3.88;;;1.60;;
47772;SDS011;33534;51.028;13.716;2022-09-09T12:34:10;6.43;;;1.55;;
47772;SDS011;33534;51.028;13.716;2022-09-09T12:36:36;4.00;;;1.40;;
47772;SDS011;33534;51.028;13.716;2022-09-09T12:39:15;2.00;;;1.00;;
47772;SDS011;33534;51.028;13.716;2022-09-09T12:41:50;4.90;;;1.52;;
47772;SDS011;33534;51.028;13.716;2022-09-09T12:44:18;5.13;;;1.48;;
47772;SDS011;33534;51.028;13.716;2022-09-09T12:46:44;4.68;;;1.63;;
47772;SDS011;33534;51.028;13.716;2022-09-09T12:51:53;3.63;;;1.10;;
47772;SDS011;33534;51.028;13.716;2022-09-09T12:54:24;7.47;;;1.67;;
47772;SDS011;33534;51.028;13.716;2022-09-09T12:56:53;6.18;;;1.85;;
47772;SDS011;33534;51.028;13.716;2022-09-09T12:59:40;5.85;;;1.60;;
47772;SDS011;33534;51.028;13.716;2022-09-09T13:02:17;4.45;;;1.23;;
47772;SDS011;33534;51.028;13.716;2022-09-09T13:04:43;3.40;;;1.48;;
47772;SDS011;33534;51.028;13.716;2022-09-09T13:07:11;3.90;;;1.50;;
47772;SDS011;33534;51.028;13.716;2022-09-09T13:09:38;4.60;;;1.13;;
47772;SDS011;33534;51.028;13.716;2022-09-09T13:12:04;6.00;;;1.30;;
47772;SDS011;33534;51.028;13.716;2022-09-09T13:14:33;4.38;;;1.40;;
47772;SDS011;33534;51.028;13.716;2022-09-09T13:17:03;5.38;;;1.35;;
47772;SDS011;33534;51.028;13.716;2022-09-09T13:19:30;3.15;;;1.25;;
47772;SDS011;33534;51.028;13.716;2022-09-09T13:21:58;3.35;;;1.23;;
47772;SDS011;33534;51.028;13.716;2022-09-09T13:24:28;3.75;;;1.33;;
47772;SDS011;33534;51.028;13.716;2022-09-09T13:26:55;2.63;;;1.13;;
47772;SDS011;33534;51.028;13.716;2022-09-09T13:29:21;2.70;;;1.20;;
47772;SDS011;33534;51.028;13.716;2022-09-09T13:31:48;3.08;;;1.15;;
47772;SDS011;33534;51.028;13.716;2022-09-09T13:34:27;1.92;;;0.80;;
47772;SDS011;33534;51.028;13.716;2022-09-09T13:37:03;5.18;;;1.13;;
47772;SDS011;33534;51.028;13.716;2022-09-09T13:39:34;3.03;;;1.00;;
47772;SDS011;33534;51.028;13.716;2022-09-09T13:42:01;3.47;;;1.00;;
47772;SDS011;33534;51.028;13.716;2022-09-09T13:44:36;2.08;;;0.80;;
47772;SDS011;33534;51.028;13.716;2022-09-09T13:47:22;3.05;;;1.20;;
47772;SDS011;33534;51.028;13.716;2022-09-09T13:49:54;2.03;;;0.77;;
47772;SDS011;33534;51.028;13.716;2022-09-09T13:52:20;2.70;;;0.80;;
47772;SDS011;33534;51.028;13.716;2022-09-09T13:54:50;3.10;;;0.88;;
47772;SDS011;33534;51.028;13.716;2022-09-09T13:57:17;3.70;;;1.10;;
47772;SDS011;33534;51.028;13.716;2022-09-09T13:59:44;1.98;;;0.98;;
47772;SDS011;33534;51.028;13.716;2022-09-09T14:02:10;4.43;;;1.27;;
47772;SDS011;33534;51.028;13.716;2022-09-09T14:04:36;4.28;;;1.25;;
47772;SDS011;33534;51.028;13.716;2022-09-09T14:07:02;3.75;;;1.25;;
47772;SDS011;33534;51.028;13.716;2022-09-09T14:09:29;4.38;;;1.30;;
47772;SDS011;33534;51.028;13.716;2022-09-09T14:11:55;3.30;;;0.80;;
47772;SDS011;33534;51.028;13.716;2022-09-09T14:14:21;3.17;;;0.90;;
47772;SDS011;33534;51.028;13.716;2022-09-09T14:16:47;2.53;;;1.17;;
47772;SDS011;33534;51.028;13.716;2022-09-09T14:19:13;4.20;;;1.27;;
47772;SDS011;33534;51.028;13.716;2022-09-09T14:21:39;5.95;;;1.23;;
47772;SDS011;33534;51.028;13.716;2022-09-09T14:24:05;2.42;;;1.13;;
47772;SDS011;33534;51.028;13.716;2022-09-09T14:26:31;3.05;;;1.38;;
47772;SDS011;33534;51.028;13.716;2022-09-09T14:28:57;2.92;;;1.20;;
47772;SDS011;33534;51.028;13.716;2022-09-09T14:31:25;5.68;;;1.20;;
47772;SDS011;33534;51.028;13.716;2022-09-09T14:33:51;2.38;;;1.30;;
47772;SDS011;33534;51.028;13.716;2022-09-09T14:36:17;4.53;;;1.23;;
47772;SDS011;33534;51.028;13.716;2022-09-09T14:38:44;2.55;;;1.25;;
47772;SDS011;33534;51.028;13.716;2022-09-09T14:41:10;7.03;;;1.60;;
47772;SDS011;33534;51.028;13.716;2022-09-09T14:43:37;3.17;;;1.33;;
47772;SDS011;33534;51.028;13.716;2022-09-09T14:48:32;2.85;;;1.50;;
47772;SDS011;33534;51.028;13.716;2022-09-09T14:51:04;2.85;;;1.45;;
47772;SDS011;33534;51.028;13.716;2022-09-09T14:53:30;2.97;;;1.17;;
47772;SDS011;33534;51.028;13.716;2022-09-09T14:56:03;4.38;;;1.00;;
47772;SDS011;33534;51.028;13.716;2022-09-09T14:58:32;3.28;;;1.00;;
47772;SDS011;33534;51.028;13.716;2022-09-09T15:01:11;3.15;;;1.20;;
47772;SDS011;33534;51.028;13.716;2022-09-09T15:03:38;2.72;;;1.20;;
47772;SDS011;33534;51.028;13.716;2022-09-09T15:06:08;5.30;;;1.67;;
47772;SDS011;33534;51.028;13.716;2022-09-09T15:08:35;2.92;;;1.10;;
47772;SDS011;33534;51.028;13.716;2022-09-09T15:11:02;2.78;;;0.95;;
47772;SDS011;33534;51.028;13.716;2022-09-09T15:13:28;3.67;;;1.25;;
47772;SDS011;33534;51.028;13.716;2022-09-09T15:15:54;5.28;;;1.10;;
47772;SDS011;33534;51.028;13.716;2022-09-09T15:18:21;3.17;;;0.90;;
47772;SDS011;33534;51.028;13.716;2022-09-09T15:20:47;2.97;;;0.88;;
47772;SDS011;33534;51.028;13.716;2022-09-09T15:23:13;1.95;;;0.85;;
47772;SDS011;33534;51.028;13.716;2022-09-09T15:25:50;2.03;;;1.17;;
47772;SDS011;33534;51.028;13.716;2022-09-09T15:28:16;2.67;;;1.27;;
47772;SDS011;33534;51.028;13.716;2022-09-09T15:30:42;4.43;;;1.35;;
47772;SDS011;33534;51.028;13.716;2022-09-09T15:33:09;3.58;;;1.10;;
47772;SDS011;33534;51.028;13.716;2022-09-09T15:35:35;5.95;;;3.15;;
47772;SDS011;33534;51.028;13.716;2022-09-09T15:38:02;5.90;;;3.47;;
47772;SDS011;33534;51.028;13.716;2022-09-09T15:40:30;4.75;;;2.35;;
47772;SDS011;33534;51.028;13.716;2022-09-09T15:42:57;5.25;;;1.98;;
47772;SDS011;33534;51.028;13.716;2022-09-09T15:45:23;2.53;;;1.58;;
47772;SDS011;33534;51.028;13.716;2022-09-09T15:47:49;6.78;;;1.70;;
47772;SDS011;33534;51.028;13.716;2022-09-09T15:50:15;4.15;;;1.33;;
47772;SDS011;33534;51.028;13.716;2022-09-09T15:52:41;3.55;;;1.20;;
47772;SDS011;33534;51.028;13.716;2022-09-09T15:55:07;2.25;;;1.02;;
47772;SDS011;33534;51.028;13.716;2022-09-09T15:57:34;3.75;;;1.15;;
47772;SDS011;33534;51.028;13.716;2022-09-09T16:00:01;4.85;;;1.52;;
47772;SDS011;33534;51.028;13.716;2022-09-09T16:02:28;3.55;;;1.25;;
47772;SDS011;33534;51.028;13.716;2022-09-09T16:04:55;3.38;;;1.10;;
47772;SDS011;33534;51.028;13.716;2022-09-09T16:07:22;4.85;;;1.08;;
47772;SDS011;33534;51.028;13.716;2022-09-09T16:09:48;4.57;;;1.40;;
47772;SDS011;33534;51.028;13.716;2022-09-09T16:12:17;3.50;;;1.00;;
47772;SDS011;33534;51.028;13.716;2022-09-09T16:14:43;4.70;;;1.48;;
47772;SDS011;33534;51.028;13.716;2022-09-09T16:17:10;7.80;;;1.60;;
47772;SDS011;33534;51.028;13.716;2022-09-09T16:19:36;2.95;;;1.23;;
47772;SDS011;33534;51.028;13.716;2022-09-09T16:22:02;3.65;;;1.98;;
47772;SDS011;33534;51.028;13.716;2022-09-09T16:24:29;3.42;;;1.30;;
47772;SDS011;33534;51.028;13.716;2022-09-09T16:26:55;4.95;;;1.50;;
47772;SDS011;33534;51.028;13.716;2022-09-09T16:29:21;3.13;;;1.50;;
47772;SDS011;33534;51.028;13.716;2022-09-09T16:31:48;3.83;;;1.15;;
47772;SDS011;33534;51.028;13.716;2022-09-09T16:34:15;3.50;;;1.38;;
47772;SDS011;33534;51.028;13.716;2022-09-09T16:36:42;3.92;;;1.75;;
47772;SDS011;33534;51.028;13.716;2022-09-09T16:39:13;2.10;;;1.45;;
47772;SDS011;33534;51.028;13.716;2022-09-09T16:41:39;3.67;;;1.00;;
47772;SDS011;33534;51.028;13.716;2022-09-09T16:44:07;4.28;;;1.60;;
47772;SDS011;33534;51.028;13.716;2022-09-09T16:46:34;3.45;;;1.42;;